createdAt,value
2023-01-27T00:01:06.092Z,3.41
2023-01-27T00:03:34.185Z,3.28
2023-01-27T00:06:02.171Z,3.16
2023-01-27T00:08:30.217Z,3.05
2023-01-27T00:11:20.854Z,3.05
2023-01-27T00:13:48.714Z,3.71
2023-01-27T00:16:17.273Z,4.33
2023-01-27T00:18:45.722Z,4.71
2023-01-27T00:21:32.284Z,4.99
2023-01-27T00:24:18.733Z,5.25
2023-01-27T00:26:46.648Z,5.41
2023-01-27T00:29:14.494Z,5.61
2023-01-27T00:32:00.810Z,5.78
2023-01-27T00:34:28.639Z,5.82
2023-01-27T00:36:56.463Z,5.36
2023-01-27T00:39:24.287Z,4.88
2023-01-27T00:41:52.130Z,4.50
2023-01-27T00:44:19.943Z,4.23
2023-01-27T00:46:47.813Z,4.01
2023-01-27T00:49:15.939Z,3.81
2023-01-27T00:51:44.254Z,3.63
2023-01-27T00:54:12.197Z,3.48
2023-01-27T00:56:40.506Z,3.32
2023-01-27T00:59:08.446Z,3.20
2023-01-27T01:01:36.473Z,3.19
2023-01-27T01:04:04.724Z,3.79
2023-01-27T01:06:32.766Z,4.36
2023-01-27T01:09:00.699Z,4.72
2023-01-27T01:11:28.840Z,5.00
2023-01-27T01:13:57.299Z,5.24
2023-01-27T01:16:26.063Z,5.43
2023-01-27T01:18:54.156Z,5.60
2023-01-27T01:21:22.646Z,5.76
2023-01-27T01:23:50.851Z,5.81
2023-01-27T01:26:19.089Z,5.40
2023-01-27T01:28:47.705Z,4.90
2023-01-27T01:31:19.216Z,4.51
2023-01-27T01:33:48.347Z,4.21
2023-01-27T01:36:18.722Z,3.97
2023-01-27T01:38:47.483Z,3.78
2023-01-27T01:41:20.519Z,3.61
2023-01-27T01:43:50.388Z,3.46
2023-01-27T01:46:19.482Z,3.31
2023-01-27T01:48:55.191Z,3.19
2023-01-27T01:51:29.920Z,3.18
2023-01-27T01:54:07.538Z,3.76
2023-01-27T01:57:03.059Z,4.34
2023-01-27T01:59:39.893Z,4.76
2023-01-27T02:02:10.466Z,5.03
2023-01-27T02:04:45.558Z,5.20
2023-01-27T02:07:22.501Z,5.42
2023-01-27T02:09:56.248Z,5.61
2023-01-27T02:12:24.120Z,5.76
2023-01-27T02:14:52.385Z,5.83
2023-01-27T02:17:22.950Z,5.42
2023-01-27T02:20:14.450Z,4.91
2023-01-27T02:22:59.108Z,4.46
2023-01-27T02:25:35.474Z,4.14
2023-01-27T02:28:05.411Z,3.89
2023-01-27T02:30:34.263Z,3.69
2023-01-27T02:33:02.538Z,3.52
2023-01-27T02:35:37.041Z,3.37
2023-01-27T02:38:07.300Z,3.22
2023-01-27T02:40:37.489Z,3.21
2023-01-27T02:43:05.522Z,3.76
2023-01-27T02:45:33.357Z,4.34
2023-01-27T02:48:01.280Z,4.70
2023-01-27T02:50:30.031Z,4.96
2023-01-27T02:52:57.867Z,5.18
2023-01-27T02:55:25.814Z,5.37
2023-01-27T02:57:53.701Z,5.53
2023-01-27T03:00:40.053Z,5.70
2023-01-27T03:03:07.912Z,5.78
2023-01-27T03:05:35.939Z,5.94
2023-01-27T03:08:03.940Z,5.98
2023-01-27T03:10:32.379Z,5.54
2023-01-27T03:13:00.206Z,5.02
2023-01-27T03:15:46.967Z,4.62
2023-01-27T03:18:16.773Z,4.27
2023-01-27T03:20:49.383Z,4.02
2023-01-27T03:23:19.460Z,3.80
2023-01-27T03:25:50.467Z,3.61
2023-01-27T03:28:18.290Z,3.44
2023-01-27T03:31:09.017Z,3.29
2023-01-27T03:33:44.359Z,3.27
2023-01-27T03:36:53.271Z,3.92
2023-01-27T03:39:40.110Z,4.45
2023-01-27T03:42:26.726Z,4.82
2023-01-27T03:45:14.795Z,5.09
2023-01-27T03:47:42.801Z,5.29
2023-01-27T03:50:13.928Z,5.47
2023-01-27T03:52:41.767Z,5.62
2023-01-27T03:55:10.239Z,5.75
2023-01-27T03:57:38.451Z,5.78
2023-01-27T04:00:07.097Z,5.34
2023-01-27T04:02:59.791Z,4.81
2023-01-27T04:05:47.018Z,4.35
2023-01-27T04:08:14.851Z,4.01
2023-01-27T04:11:02.609Z,3.77
2023-01-27T04:13:30.437Z,3.53
2023-01-27T04:15:58.735Z,3.35
2023-01-27T04:18:26.602Z,3.19
2023-01-27T04:20:54.551Z,3.13
2023-01-27T04:23:22.356Z,3.60
2023-01-27T04:25:53.678Z,4.11
2023-01-27T04:28:37.256Z,4.49
2023-01-27T04:31:09.664Z,4.79
2023-01-27T04:33:37.623Z,4.98
2023-01-27T04:36:05.710Z,5.16
2023-01-27T04:38:33.880Z,5.30
2023-01-27T04:41:01.748Z,5.42
2023-01-27T04:43:29.631Z,5.51
2023-01-27T04:45:57.755Z,5.53
2023-01-27T04:48:25.682Z,5.08
2023-01-27T04:50:53.766Z,4.54
2023-01-27T04:53:21.851Z,4.11
2023-01-27T04:55:50.392Z,3.78
2023-01-27T04:58:18.456Z,3.50
2023-01-27T05:00:46.358Z,3.26
2023-01-27T05:03:14.357Z,3.04
2023-01-27T05:05:42.425Z,2.92
2023-01-27T05:08:10.979Z,3.30
2023-01-27T05:10:38.799Z,3.77
2023-01-27T05:13:06.623Z,4.11
2023-01-27T05:15:34.521Z,4.35
2023-01-27T05:18:02.408Z,4.54
2023-01-27T05:20:31.822Z,4.69
2023-01-27T05:23:18.538Z,4.82
2023-01-27T05:25:46.578Z,4.94
2023-01-27T05:28:14.519Z,5.02
2023-01-27T05:30:42.444Z,5.09
2023-01-27T05:33:11.214Z,5.15
2023-01-27T05:35:39.224Z,5.12
2023-01-27T05:38:07.350Z,4.63
2023-01-27T05:40:35.282Z,4.06
2023-01-27T05:43:03.700Z,3.59
2023-01-27T05:45:31.555Z,3.21
2023-01-27T05:47:59.522Z,2.90
2023-01-27T05:50:27.546Z,2.64
2023-01-27T05:52:55.346Z,2.40
2023-01-27T05:55:23.211Z,2.18
2023-01-27T05:57:51.492Z,2.07
2023-01-27T06:00:20.001Z,2.55
2023-01-27T06:02:48.063Z,3.03
2023-01-27T06:05:16.255Z,3.35
2023-01-27T06:07:44.038Z,3.56
2023-01-27T06:10:12.683Z,3.72
2023-01-27T06:12:40.857Z,3.86
2023-01-27T06:15:09.751Z,3.96
2023-01-27T06:17:37.610Z,4.05
2023-01-27T06:20:06.073Z,4.13
2023-01-27T06:22:33.893Z,4.20
2023-01-27T06:25:01.684Z,4.25
2023-01-27T06:27:29.494Z,4.31
2023-01-27T06:29:57.230Z,4.35
2023-01-27T06:32:25.009Z,4.40
2023-01-27T06:34:52.918Z,4.45
2023-01-27T06:37:20.932Z,4.48
2023-01-27T06:39:48.718Z,4.52
2023-01-27T06:42:16.596Z,4.47
2023-01-27T06:44:44.552Z,3.96
2023-01-27T06:47:12.451Z,3.35
2023-01-27T06:49:40.546Z,2.87
2023-01-27T06:52:08.457Z,2.50
2023-01-27T06:54:36.274Z,2.19
2023-01-27T06:57:04.196Z,1.93
2023-01-27T06:59:32.026Z,1.70
2023-01-27T07:01:59.852Z,1.56
2023-01-27T07:04:27.647Z,1.93
2023-01-27T07:06:55.582Z,2.43
2023-01-27T07:09:23.421Z,2.83
2023-01-27T07:11:52.075Z,3.11
2023-01-27T07:14:19.895Z,3.32
2023-01-27T07:16:48.040Z,3.48
2023-01-27T07:19:16.987Z,3.63
2023-01-27T07:21:44.803Z,3.77
2023-01-27T07:24:12.768Z,3.90
2023-01-27T07:26:40.968Z,4.00
2023-01-27T07:29:08.807Z,4.11
2023-01-27T07:31:36.742Z,4.20
2023-01-27T07:34:04.708Z,4.29
2023-01-27T07:36:32.606Z,4.37
2023-01-27T07:39:00.495Z,4.44
2023-01-27T07:41:28.273Z,4.49
2023-01-27T07:43:56.085Z,4.46
2023-01-27T07:46:27.272Z,3.97
2023-01-27T07:48:55.099Z,3.40
2023-01-27T07:51:22.985Z,2.95
2023-01-27T07:53:52.361Z,2.61
2023-01-27T07:56:20.252Z,2.34
2023-01-27T07:58:48.289Z,2.11
2023-01-27T08:01:16.157Z,1.93
2023-01-27T08:03:44.383Z,1.92
2023-01-27T08:06:13.262Z,2.50
2023-01-27T08:08:41.862Z,2.99
2023-01-27T08:11:13.489Z,3.36
2023-01-27T08:13:42.384Z,3.65
2023-01-27T08:16:15.233Z,3.89
2023-01-27T08:18:43.326Z,4.15
2023-01-27T08:21:13.043Z,4.31
2023-01-27T08:23:41.129Z,4.45
2023-01-27T08:26:09.258Z,4.58
2023-01-27T08:28:38.944Z,4.68
2023-01-27T08:31:14.606Z,4.80
2023-01-27T08:33:44.740Z,4.90
2023-01-27T08:36:15.487Z,5.00
2023-01-27T08:38:45.038Z,5.09
2023-01-27T08:41:15.531Z,5.18
2023-01-27T08:43:44.016Z,5.26
2023-01-27T08:46:12.510Z,5.23
2023-01-27T08:48:41.278Z,4.75
2023-01-27T08:51:12.676Z,4.21
2023-01-27T08:53:41.039Z,3.79
2023-01-27T08:56:12.635Z,3.49
2023-01-27T08:58:40.682Z,3.27
2023-01-27T09:01:09.568Z,3.13
2023-01-27T09:03:37.654Z,3.38
2023-01-27T09:06:07.873Z,4.53
2023-01-27T09:08:36.386Z,5.08
2023-01-27T09:11:14.915Z,5.45
2023-01-27T09:13:43.466Z,5.73
2023-01-27T09:16:11.410Z,5.97
2023-01-27T09:18:39.435Z,5.95
2023-01-27T09:21:07.623Z,5.55
2023-01-27T09:23:35.658Z,5.21
2023-01-27T09:26:03.485Z,4.92
2023-01-27T09:28:31.338Z,4.73
2023-01-27T09:31:00.256Z,4.59
2023-01-27T09:33:28.399Z,4.47
2023-01-27T09:36:03.746Z,4.41
2023-01-27T09:38:34.857Z,4.36
2023-01-27T09:41:40.462Z,4.44
2023-01-27T09:44:34.301Z,5.19
2023-01-27T09:47:24.221Z,5.87
2023-01-27T09:50:20.390Z,6.37
2023-01-27T09:53:04.890Z,6.63
2023-01-27T09:55:51.041Z,6.22
2023-01-27T09:58:25.035Z,5.78
2023-01-27T10:01:04.672Z,5.49
2023-01-27T10:03:39.264Z,5.28
2023-01-27T10:06:20.005Z,5.10
2023-01-27T10:09:09.680Z,4.93
2023-01-27T10:11:55.039Z,4.82
2023-01-27T10:14:30.899Z,4.76
2023-01-27T10:17:41.085Z,4.71
2023-01-27T10:20:17.133Z,4.68
2023-01-27T10:23:07.206Z,4.69
2023-01-27T10:26:08.550Z,4.70
2023-01-27T10:28:38.067Z,4.74
2023-01-27T10:31:14.956Z,4.80
2023-01-27T10:34:01.881Z,4.86
2023-01-27T10:36:47.060Z,4.88
2023-01-27T10:39:44.312Z,4.91
2023-01-27T10:42:30.891Z,5.01
2023-01-27T10:45:10.856Z,5.12
2023-01-27T10:47:50.684Z,5.21
2023-01-27T10:50:27.330Z,5.24
2023-01-27T10:53:07.516Z,5.18
2023-01-27T10:55:46.966Z,5.16
2023-01-27T10:58:39.930Z,5.17
2023-01-27T11:01:21.264Z,5.20
2023-01-27T11:04:02.477Z,5.28
2023-01-27T11:06:42.444Z,5.31
2023-01-27T11:09:28.666Z,5.30
2023-01-27T11:12:00.827Z,5.29
2023-01-27T11:14:48.447Z,5.30
2023-01-27T11:17:29.210Z,5.35
2023-01-27T11:20:20.670Z,5.40
2023-01-27T11:23:00.205Z,5.44
2023-01-27T11:25:34.076Z,5.50
2023-01-27T11:28:25.956Z,5.53
2023-01-27T11:31:16.953Z,5.59
2023-01-27T11:34:16.267Z,5.63
2023-01-27T11:36:44.096Z,5.66
2023-01-27T11:39:14.566Z,5.67
2023-01-27T11:41:52.047Z,5.64
2023-01-27T11:44:29.485Z,5.66
2023-01-27T11:46:57.898Z,5.68
2023-01-27T11:49:37.348Z,5.65
2023-01-27T11:52:18.032Z,5.63
2023-01-27T11:55:05.337Z,5.62
2023-01-27T11:57:35.456Z,5.61
2023-01-27T12:00:25.973Z,5.59
2023-01-27T12:03:03.580Z,5.59
2023-01-27T12:05:35.028Z,5.56
2023-01-27T12:08:05.504Z,5.55
2023-01-27T12:10:44.568Z,5.56
2023-01-27T12:13:27.089Z,5.51
2023-01-27T12:16:00.478Z,5.45
2023-01-27T12:18:34.055Z,5.41
2023-01-27T12:21:06.752Z,5.33
2023-01-27T12:23:39.207Z,5.24
2023-01-27T12:26:09.959Z,5.18
2023-01-27T12:28:43.102Z,5.17
2023-01-27T12:31:51.831Z,5.20
2023-01-27T12:34:37.418Z,5.26
2023-01-27T12:37:07.998Z,5.28
2023-01-27T12:39:45.579Z,5.32
2023-01-27T12:42:39.211Z,5.35
2023-01-27T12:45:29.976Z,5.30
2023-01-27T12:48:10.312Z,5.25
2023-01-27T12:50:53.000Z,5.24
2023-01-27T12:53:27.932Z,5.23
2023-01-27T12:56:12.277Z,5.22
2023-01-27T12:58:56.631Z,5.20
2023-01-27T13:01:34.070Z,5.17
2023-01-27T13:04:21.981Z,5.14
2023-01-27T13:07:01.709Z,5.12
2023-01-27T13:10:03.331Z,5.05
2023-01-27T13:12:47.739Z,4.99
2023-01-27T13:15:19.289Z,4.92
2023-01-27T13:17:49.680Z,4.90
2023-01-27T13:20:20.743Z,4.90
2023-01-27T13:22:53.347Z,4.90
2023-01-27T13:25:26.740Z,4.87
2023-01-27T13:27:59.304Z,4.81
2023-01-27T13:30:37.118Z,4.79
2023-01-27T13:33:37.689Z,4.74
2023-01-27T13:36:21.108Z,4.73
2023-01-27T13:39:14.951Z,4.76
2023-01-27T13:42:06.945Z,4.78
2023-01-27T13:44:47.055Z,4.76
2023-01-27T13:47:21.983Z,4.71
2023-01-27T13:50:08.393Z,4.67
2023-01-27T13:52:38.289Z,4.63
2023-01-27T13:55:11.618Z,4.57
2023-01-27T13:58:05.760Z,4.52
2023-01-27T14:01:08.737Z,4.42
2023-01-27T14:04:09.276Z,4.37
2023-01-27T14:07:16.544Z,4.31
2023-01-27T14:10:10.621Z,4.22
2023-01-27T14:13:13.755Z,4.16
2023-01-27T14:15:49.800Z,4.14
2023-01-27T14:18:26.520Z,4.12
2023-01-27T14:21:09.403Z,4.41
2023-01-27T14:24:01.022Z,5.11
2023-01-27T14:26:50.259Z,5.73
2023-01-27T14:29:43.355Z,6.16
2023-01-27T14:32:26.394Z,6.36
2023-01-27T14:35:21.094Z,5.97
2023-01-27T14:38:17.193Z,5.51
2023-01-27T14:41:18.741Z,5.16
2023-01-27T14:43:49.198Z,4.93
2023-01-27T14:46:48.400Z,4.77
2023-01-27T14:49:44.349Z,4.60
2023-01-27T14:52:15.139Z,4.52
2023-01-27T14:55:11.233Z,4.95
2023-01-27T14:57:55.905Z,5.59
2023-01-27T15:00:39.181Z,6.04
2023-01-27T15:03:40.387Z,6.37
2023-01-27T15:06:29.766Z,6.61
2023-01-27T15:09:39.176Z,6.79
2023-01-27T15:12:36.774Z,6.77
2023-01-27T15:15:28.182Z,6.19
2023-01-27T15:18:36.747Z,5.64
2023-01-27T15:21:38.256Z,5.21
2023-01-27T15:24:06.026Z,4.91
2023-01-27T15:26:36.469Z,4.73
2023-01-27T15:29:05.131Z,4.57
2023-01-27T15:31:33.605Z,4.44
2023-01-27T15:34:04.374Z,4.36
2023-01-27T15:36:34.063Z,4.76
2023-01-27T15:39:10.939Z,5.35
2023-01-27T15:42:01.750Z,5.80
2023-01-27T15:44:38.413Z,6.14
2023-01-27T15:47:35.247Z,6.36
2023-01-27T15:50:05.784Z,6.56
2023-01-27T15:52:42.800Z,6.69
2023-01-27T15:55:32.497Z,6.81
2023-01-27T15:58:09.194Z,6.77
2023-01-27T16:00:42.500Z,6.25
2023-01-27T16:03:33.523Z,5.70
2023-01-27T16:06:09.807Z,5.24
2023-01-27T16:08:43.482Z,4.93
2023-01-27T16:11:34.448Z,4.70
2023-01-27T16:14:11.615Z,4.46
2023-01-27T16:16:51.775Z,4.39
2023-01-27T16:19:27.641Z,4.89
2023-01-27T16:22:02.953Z,5.37
2023-01-27T16:24:46.279Z,5.74
2023-01-27T16:27:14.057Z,6.04
2023-01-27T16:29:48.321Z,6.24
2023-01-27T16:32:19.331Z,6.40
2023-01-27T16:35:18.506Z,6.50
2023-01-27T16:38:15.805Z,6.66
2023-01-27T16:40:51.299Z,6.80
2023-01-27T16:43:30.008Z,6.86
2023-01-27T16:46:02.608Z,6.94
2023-01-27T16:48:46.740Z,6.92
2023-01-27T16:51:18.711Z,6.36
2023-01-27T16:53:51.969Z,5.76
2023-01-27T16:56:21.454Z,5.33
2023-01-27T16:58:51.200Z,4.99
2023-01-27T17:01:47.922Z,4.73
2023-01-27T17:04:27.601Z,4.48
2023-01-27T17:07:09.349Z,4.63
2023-01-27T17:09:52.335Z,5.19
2023-01-27T17:12:31.039Z,5.64
2023-01-27T17:15:01.130Z,5.92
2023-01-27T17:17:34.383Z,6.08
2023-01-27T17:20:05.223Z,6.25
2023-01-27T17:22:44.008Z,6.37
2023-01-27T17:25:21.333Z,6.43
2023-01-27T17:27:49.648Z,6.50
2023-01-27T17:30:25.071Z,6.56
2023-01-27T17:33:01.875Z,6.67
2023-01-27T17:35:33.562Z,6.23
2023-01-27T17:38:10.138Z,5.63
2023-01-27T17:40:41.901Z,5.14
2023-01-27T17:43:32.112Z,4.79
2023-01-27T17:46:03.129Z,4.51
2023-01-27T17:48:38.414Z,4.30
2023-01-27T17:51:07.293Z,4.38
2023-01-27T17:53:39.079Z,4.82
2023-01-27T17:56:21.744Z,5.24
2023-01-27T17:58:55.156Z,5.55
2023-01-27T18:01:23.142Z,5.78
2023-01-27T18:03:55.362Z,5.98
2023-01-27T18:06:27.762Z,6.11
2023-01-27T18:08:58.826Z,6.22
2023-01-27T18:11:31.399Z,6.33
2023-01-27T18:14:07.917Z,6.32
2023-01-27T18:16:36.188Z,5.82
2023-01-27T18:19:24.983Z,5.30
2023-01-27T18:22:17.193Z,4.86
2023-01-27T18:25:00.962Z,4.53
2023-01-27T18:27:34.640Z,4.29
2023-01-27T18:30:24.051Z,4.10
2023-01-27T18:33:02.929Z,3.90
2023-01-27T18:35:35.073Z,3.85
2023-01-27T18:38:19.704Z,4.31
2023-01-27T18:40:49.518Z,4.86
2023-01-27T18:43:18.073Z,5.23
2023-01-27T18:45:48.407Z,5.52
2023-01-27T18:48:17.952Z,5.74
2023-01-27T18:50:47.533Z,5.93
2023-01-27T18:53:22.725Z,6.09
2023-01-27T18:55:54.956Z,6.26
2023-01-27T18:58:25.161Z,6.42
2023-01-27T19:00:55.421Z,6.54
2023-01-27T19:03:25.550Z,6.62
2023-01-27T19:05:57.588Z,6.72
2023-01-27T19:08:28.400Z,6.73
2023-01-27T19:10:57.081Z,6.27
2023-01-27T19:13:28.756Z,5.73
2023-01-27T19:15:59.987Z,5.29
2023-01-27T19:18:36.133Z,4.97
2023-01-27T19:21:07.401Z,4.69
2023-01-27T19:23:37.114Z,4.47
2023-01-27T19:26:10.062Z,4.29
2023-01-27T19:28:38.917Z,4.12
2023-01-27T19:31:07.826Z,4.03
2023-01-27T19:33:37.364Z,4.42
2023-01-27T19:36:29.344Z,4.95
2023-01-27T19:39:17.523Z,5.40
2023-01-27T19:41:46.250Z,5.73
2023-01-27T19:44:15.262Z,5.95
2023-01-27T19:46:43.429Z,6.14
2023-01-27T19:49:16.900Z,6.29
2023-01-27T19:51:45.104Z,6.42
2023-01-27T19:54:13.038Z,6.55
2023-01-27T19:56:40.894Z,6.66
2023-01-27T19:59:10.013Z,6.73
2023-01-27T20:01:37.829Z,6.71
2023-01-27T20:04:05.784Z,6.24
2023-01-27T20:06:34.456Z,5.68
2023-01-27T20:09:03.721Z,5.20
2023-01-27T20:11:43.162Z,4.85
2023-01-27T20:14:14.280Z,4.56
2023-01-27T20:16:43.065Z,4.33
2023-01-27T20:19:15.176Z,4.21
2023-01-27T20:21:45.517Z,4.60
2023-01-27T20:24:18.253Z,5.09
2023-01-27T20:26:46.427Z,5.49
2023-01-27T20:29:14.384Z,5.76
2023-01-27T20:31:42.707Z,5.97
2023-01-27T20:34:10.989Z,6.17
2023-01-27T20:36:38.824Z,6.28
2023-01-27T20:39:06.653Z,6.41
2023-01-27T20:41:34.547Z,6.51
2023-01-27T20:44:02.417Z,6.59
2023-01-27T20:46:30.893Z,6.67
2023-01-27T20:48:59.588Z,6.74
2023-01-27T20:51:27.420Z,6.80
2023-01-27T20:53:55.276Z,6.82
2023-01-27T20:56:24.212Z,6.79
2023-01-27T20:58:52.624Z,6.33
2023-01-27T21:01:23.080Z,5.75
2023-01-27T21:03:51.294Z,5.30
2023-01-27T21:06:20.235Z,4.98
2023-01-27T21:08:49.360Z,5.09
2023-01-27T21:11:20.193Z,5.48
2023-01-27T21:13:49.131Z,5.79
2023-01-27T21:16:17.444Z,6.02
2023-01-27T21:18:45.750Z,6.18
2023-01-27T21:21:27.276Z,6.31
2023-01-27T21:23:56.565Z,6.37
2023-01-27T21:26:24.802Z,6.47
2023-01-27T21:28:53.181Z,6.57
2023-01-27T21:31:24.513Z,6.65
2023-01-27T21:33:52.373Z,6.72
2023-01-27T21:36:20.295Z,6.79
2023-01-27T21:38:53.986Z,6.85
2023-01-27T21:41:42.312Z,6.83
2023-01-27T21:44:36.811Z,6.27
2023-01-27T21:47:06.518Z,5.59
2023-01-27T21:49:58.702Z,5.12
2023-01-27T21:52:39.374Z,4.72
2023-01-27T21:55:10.345Z,4.43
2023-01-27T21:57:38.241Z,4.28
2023-01-27T22:00:10.426Z,4.63
2023-01-27T22:02:42.434Z,5.11
2023-01-27T22:05:12.794Z,5.45
2023-01-27T22:07:41.855Z,5.72
2023-01-27T22:10:19.297Z,5.92
2023-01-27T22:12:49.393Z,6.11
2023-01-27T22:15:20.084Z,6.26
2023-01-27T22:17:48.152Z,6.33
2023-01-27T22:27:56.888Z,6.60
2023-01-27T22:30:24.838Z,6.13
2023-01-27T22:32:52.790Z,5.57
2023-01-27T22:35:20.859Z,5.14
2023-01-27T22:37:49.285Z,4.81
2023-01-27T22:40:18.075Z,4.53
2023-01-27T22:42:48.468Z,4.37
2023-01-27T22:45:17.250Z,4.68
2023-01-27T22:47:45.517Z,5.16
2023-01-27T22:50:14.121Z,5.50
2023-01-27T22:52:42.622Z,5.76
2023-01-27T22:55:12.312Z,5.94
2023-01-27T22:57:40.575Z,6.08
2023-01-27T23:00:09.976Z,6.21
2023-01-27T23:02:38.173Z,6.33
2023-01-27T23:05:07.061Z,6.42
2023-01-27T23:07:35.039Z,6.49
2023-01-27T23:10:03.085Z,6.53
2023-01-27T23:12:30.938Z,6.56
2023-01-27T23:15:01.883Z,6.56
2023-01-27T23:17:30.158Z,6.58
2023-01-27T23:19:58.130Z,6.60
2023-01-27T23:22:26.146Z,6.66
2023-01-27T23:24:54.228Z,6.71
2023-01-27T23:27:22.177Z,6.76
2023-01-27T23:29:50.141Z,6.70
2023-01-27T23:32:17.999Z,6.19
2023-01-27T23:34:45.911Z,5.60
2023-01-27T23:37:14.063Z,5.14
2023-01-27T23:39:46.076Z,4.79
2023-01-27T23:42:15.190Z,4.49
2023-01-27T23:44:43.154Z,4.24
2023-01-27T23:47:12.644Z,4.10
2023-01-27T23:49:41.022Z,4.43
2023-01-27T23:52:08.967Z,4.88
2023-01-27T23:54:37.501Z,5.21
2023-01-27T23:57:05.549Z,5.46
2023-01-27T23:59:33.572Z,5.67
